sensor_id;sensor_type;location;lat;lon;timestamp;temperature;humidity
69054;DHT22;56125;52.242;4.756;2023-04-23T00:02:24;18.90;49.40
69054;DHT22;56125;52.242;4.756;2023-04-23T00:07:26;18.90;49.50
69054;DHT22;56125;52.242;4.756;2023-04-23T00:12:28;18.90;49.60
69054;DHT22;56125;52.242;4.756;2023-04-23T00:17:29;18.90;49.60
69054;DHT22;56125;52.242;4.756;2023-04-23T00:22:31;18.90;49.50
69054;DHT22;56125;52.242;4.756;2023-04-23T00:27:32;18.90;49.60
69054;DHT22;56125;52.242;4.756;2023-04-23T00:32:33;18.90;49.60
69054;DHT22;56125;52.242;4.756;2023-04-23T00:37:34;18.90;49.70
69054;DHT22;56125;52.242;4.756;2023-04-23T00:42:36;18.80;49.60
69054;DHT22;56125;52.242;4.756;2023-04-23T00:47:39;18.90;49.50
69054;DHT22;56125;52.242;4.756;2023-04-23T00:52:40;18.90;49.60
69054;DHT22;56125;52.242;4.756;2023-04-23T00:57:41;18.90;49.40
69054;DHT22;56125;52.242;4.756;2023-04-23T01:02:42;18.90;49.40
69054;DHT22;56125;52.242;4.756;2023-04-23T01:07:46;18.90;50.20
69054;DHT22;56125;52.242;4.756;2023-04-23T01:12:47;18.90;49.30
69054;DHT22;56125;52.242;4.756;2023-04-23T01:17:49;18.90;49.50
69054;DHT22;56125;52.242;4.756;2023-04-23T01:22:50;18.90;49.30
69054;DHT22;56125;52.242;4.756;2023-04-23T01:27:51;18.80;49.30
69054;DHT22;56125;52.242;4.756;2023-04-23T01:32:56;18.90;49.40
69054;DHT22;56125;52.242;4.756;2023-04-23T01:37:58;18.90;49.60
69054;DHT22;56125;52.242;4.756;2023-04-23T01:43:00;18.90;49.50
69054;DHT22;56125;52.242;4.756;2023-04-23T01:48:01;18.90;49.60
69054;DHT22;56125;52.242;4.756;2023-04-23T01:53:03;19.50;49.80
69054;DHT22;56125;52.242;4.756;2023-04-23T01:58:04;18.90;50.60
69054;DHT22;56125;52.242;4.756;2023-04-23T02:03:05;18.90;49.40
69054;DHT22;56125;52.242;4.756;2023-04-23T02:08:06;18.90;49.50
69054;DHT22;56125;52.242;4.756;2023-04-23T02:13:08;18.90;49.70
69054;DHT22;56125;52.242;4.756;2023-04-23T02:18:09;18.90;49.60
69054;DHT22;56125;52.242;4.756;2023-04-23T02:23:10;18.90;49.70
69054;DHT22;56125;52.242;4.756;2023-04-23T02:28:12;19.60;50.00
69054;DHT22;56125;52.242;4.756;2023-04-23T02:33:13;18.90;49.60
69054;DHT22;56125;52.242;4.756;2023-04-23T02:38:14;18.90;49.80
69054;DHT22;56125;52.242;4.756;2023-04-23T02:43:15;18.60;49.50
69054;DHT22;56125;52.242;4.756;2023-04-23T02:48:17;18.90;49.90
69054;DHT22;56125;52.242;4.756;2023-04-23T02:53:18;18.90;49.80
69054;DHT22;56125;52.242;4.756;2023-04-23T02:58:20;18.90;49.90
69054;DHT22;56125;52.242;4.756;2023-04-23T03:03:21;18.90;50.10
69054;DHT22;56125;52.242;4.756;2023-04-23T03:08:26;18.90;49.80
69054;DHT22;56125;52.242;4.756;2023-04-23T03:13:27;18.90;49.80
69054;DHT22;56125;52.242;4.756;2023-04-23T03:18:28;18.90;50.10
69054;DHT22;56125;52.242;4.756;2023-04-23T03:23:29;18.90;50.00
69054;DHT22;56125;52.242;4.756;2023-04-23T03:28:30;18.90;49.90
69054;DHT22;56125;52.242;4.756;2023-04-23T03:33:31;18.90;49.80
69054;DHT22;56125;52.242;4.756;2023-04-23T03:38:32;18.90;50.00
69054;DHT22;56125;52.242;4.756;2023-04-23T03:43:33;18.90;49.90
69054;DHT22;56125;52.242;4.756;2023-04-23T03:48:35;18.90;50.30
69054;DHT22;56125;52.242;4.756;2023-04-23T03:53:36;18.90;50.10
69054;DHT22;56125;52.242;4.756;2023-04-23T03:58:37;18.90;50.00
69054;DHT22;56125;52.242;4.756;2023-04-23T04:03:38;19.40;50.10
69054;DHT22;56125;52.242;4.756;2023-04-23T04:08:39;18.90;49.90
69054;DHT22;56125;52.242;4.756;2023-04-23T04:13:40;18.30;49.50
69054;DHT22;56125;52.242;4.756;2023-04-23T04:18:41;18.90;49.80
69054;DHT22;56125;52.242;4.756;2023-04-23T04:23:43;19.00;49.90
69054;DHT22;56125;52.242;4.756;2023-04-23T04:28:44;18.90;50.10
69054;DHT22;56125;52.242;4.756;2023-04-23T04:33:45;18.90;50.10
69054;DHT22;56125;52.242;4.756;2023-04-23T04:38:46;19.40;50.50
69054;DHT22;56125;52.242;4.756;2023-04-23T04:43:48;18.90;50.20
69054;DHT22;56125;52.242;4.756;2023-04-23T04:48:49;19.20;50.70
69054;DHT22;56125;52.242;4.756;2023-04-23T04:53:50;18.90;50.30
69054;DHT22;56125;52.242;4.756;2023-04-23T04:58:51;18.90;50.40
69054;DHT22;56125;52.242;4.756;2023-04-23T05:03:52;18.90;50.60
69054;DHT22;56125;52.242;4.756;2023-04-23T05:08:53;18.90;50.50
69054;DHT22;56125;52.242;4.756;2023-04-23T05:13:56;18.90;50.30
69054;DHT22;56125;52.242;4.756;2023-04-23T05:18:57;19.00;50.50
69054;DHT22;56125;52.242;4.756;2023-04-23T05:23:58;19.00;49.80
69054;DHT22;56125;52.242;4.756;2023-04-23T05:28:59;19.00;49.30
69054;DHT22;56125;52.242;4.756;2023-04-23T05:34:00;19.10;50.50
69054;DHT22;56125;52.242;4.756;2023-04-23T05:39:01;19.00;50.00
69054;DHT22;56125;52.242;4.756;2023-04-23T05:44:02;19.00;49.20
69054;DHT22;56125;52.242;4.756;2023-04-23T05:49:03;19.00;49.80
69054;DHT22;56125;52.242;4.756;2023-04-23T05:54:04;19.10;49.90
69054;DHT22;56125;52.242;4.756;2023-04-23T05:59:05;19.60;50.10
69054;DHT22;56125;52.242;4.756;2023-04-23T06:04:06;19.20;49.90
69054;DHT22;56125;52.242;4.756;2023-04-23T06:09:08;19.30;49.80
69054;DHT22;56125;52.242;4.756;2023-04-23T06:14:09;19.30;49.60
69054;DHT22;56125;52.242;4.756;2023-04-23T06:19:10;19.40;49.80
69054;DHT22;56125;52.242;4.756;2023-04-23T06:24:11;19.50;49.40
69054;DHT22;56125;52.242;4.756;2023-04-23T06:29:12;19.10;49.10
69054;DHT22;56125;52.242;4.756;2023-04-23T06:34:13;19.60;49.40
69054;DHT22;56125;52.242;4.756;2023-04-23T06:39:14;19.70;49.80
69054;DHT22;56125;52.242;4.756;2023-04-23T06:44:16;19.70;49.10
69054;DHT22;56125;52.242;4.756;2023-04-23T06:49:17;19.80;49.00
69054;DHT22;56125;52.242;4.756;2023-04-23T06:54:18;19.80;49.00
69054;DHT22;56125;52.242;4.756;2023-04-23T06:59:19;19.90;49.00
69054;DHT22;56125;52.242;4.756;2023-04-23T07:04:20;19.90;49.00
69054;DHT22;56125;52.242;4.756;2023-04-23T07:09:21;20.00;48.90
69054;DHT22;56125;52.242;4.756;2023-04-23T07:14:23;20.00;48.80
69054;DHT22;56125;52.242;4.756;2023-04-23T07:19:24;19.90;48.80
69054;DHT22;56125;52.242;4.756;2023-04-23T07:24:25;20.10;48.70
69054;DHT22;56125;52.242;4.756;2023-04-23T07:29:26;20.10;48.60
69054;DHT22;56125;52.242;4.756;2023-04-23T07:34:27;19.60;48.20
69054;DHT22;56125;52.242;4.756;2023-04-23T07:39:28;20.10;48.40
69054;DHT22;56125;52.242;4.756;2023-04-23T07:44:29;20.10;48.30
69054;DHT22;56125;52.242;4.756;2023-04-23T07:49:30;20.20;48.30
69054;DHT22;56125;52.242;4.756;2023-04-23T07:54:31;20.20;48.20
69054;DHT22;56125;52.242;4.756;2023-04-23T07:59:32;20.20;48.10
69054;DHT22;56125;52.242;4.756;2023-04-23T08:04:33;20.20;48.10
69054;DHT22;56125;52.242;4.756;2023-04-23T08:09:34;20.20;48.20
69054;DHT22;56125;52.242;4.756;2023-04-23T08:14:35;20.20;48.10
69054;DHT22;56125;52.242;4.756;2023-04-23T08:19:36;20.20;48.10
69054;DHT22;56125;52.242;4.756;2023-04-23T08:24:37;20.20;48.10
69054;DHT22;56125;52.242;4.756;2023-04-23T08:29:38;20.20;48.20
69054;DHT22;56125;52.242;4.756;2023-04-23T08:34:39;20.20;48.10
69054;DHT22;56125;52.242;4.756;2023-04-23T08:39:40;20.20;48.20
69054;DHT22;56125;52.242;4.756;2023-04-23T08:44:41;20.20;48.20
69054;DHT22;56125;52.242;4.756;2023-04-23T08:49:44;20.20;48.20
69054;DHT22;56125;52.242;4.756;2023-04-23T08:54:49;20.20;48.20
69054;DHT22;56125;52.242;4.756;2023-04-23T08:59:51;20.10;48.00
69054;DHT22;56125;52.242;4.756;2023-04-23T09:04:52;20.20;48.00
69054;DHT22;56125;52.242;4.756;2023-04-23T09:09:54;20.20;48.00
69054;DHT22;56125;52.242;4.756;2023-04-23T09:14:55;20.20;48.00
69054;DHT22;56125;52.242;4.756;2023-04-23T09:19:57;20.20;48.80
69054;DHT22;56125;52.242;4.756;2023-04-23T09:25:00;20.20;48.10
69054;DHT22;56125;52.242;4.756;2023-04-23T09:30:06;20.20;48.00
69054;DHT22;56125;52.242;4.756;2023-04-23T09:35:10;20.20;47.70
69054;DHT22;56125;52.242;4.756;2023-04-23T09:40:13;20.20;47.80
69054;DHT22;56125;52.242;4.756;2023-04-23T09:45:15;20.20;47.60
69054;DHT22;56125;52.242;4.756;2023-04-23T09:50:16;20.20;47.60
69054;DHT22;56125;52.242;4.756;2023-04-23T09:55:26;20.20;47.60
69054;DHT22;56125;52.242;4.756;2023-04-23T10:00:36;20.20;47.60
69054;DHT22;56125;52.242;4.756;2023-04-23T10:05:38;20.20;47.50
69054;DHT22;56125;52.242;4.756;2023-04-23T10:10:40;20.20;47.50
69054;DHT22;56125;52.242;4.756;2023-04-23T10:15:42;20.20;47.70
69054;DHT22;56125;52.242;4.756;2023-04-23T10:20:47;20.20;47.60
69054;DHT22;56125;52.242;4.756;2023-04-23T10:25:52;20.00;47.70
69054;DHT22;56125;52.242;4.756;2023-04-23T10:30:55;20.20;47.90
69054;DHT22;56125;52.242;4.756;2023-04-23T10:35:57;20.30;48.10
69054;DHT22;56125;52.242;4.756;2023-04-23T10:41:00;20.20;47.60
69054;DHT22;56125;52.242;4.756;2023-04-23T10:46:02;20.20;48.00
69054;DHT22;56125;52.242;4.756;2023-04-23T10:51:03;20.20;47.90
69054;DHT22;56125;52.242;4.756;2023-04-23T10:56:06;20.20;47.80
69054;DHT22;56125;52.242;4.756;2023-04-23T11:01:07;20.20;47.70
69054;DHT22;56125;52.242;4.756;2023-04-23T11:06:12;20.20;47.80
69054;DHT22;56125;52.242;4.756;2023-04-23T11:11:15;20.20;47.70
69054;DHT22;56125;52.242;4.756;2023-04-23T11:16:19;20.20;47.60
69054;DHT22;56125;52.242;4.756;2023-04-23T11:21:21;20.20;47.40
69054;DHT22;56125;52.242;4.756;2023-04-23T11:26:26;20.30;47.50
69054;DHT22;56125;52.242;4.756;2023-04-23T11:31:30;20.30;47.40
69054;DHT22;56125;52.242;4.756;2023-04-23T11:36:31;20.30;47.30
69054;DHT22;56125;52.242;4.756;2023-04-23T11:41:33;20.30;47.30
69054;DHT22;56125;52.242;4.756;2023-04-23T11:46:35;20.30;47.20
69054;DHT22;56125;52.242;4.756;2023-04-23T11:51:40;20.30;47.10
69054;DHT22;56125;52.242;4.756;2023-04-23T11:56:43;20.30;47.20
69054;DHT22;56125;52.242;4.756;2023-04-23T12:01:49;20.30;47.20
69054;DHT22;56125;52.242;4.756;2023-04-23T12:06:52;20.30;47.20
69054;DHT22;56125;52.242;4.756;2023-04-23T12:11:55;20.30;47.20
69054;DHT22;56125;52.242;4.756;2023-04-23T12:16:57;20.30;47.40
69054;DHT22;56125;52.242;4.756;2023-04-23T12:22:08;20.30;47.00
69054;DHT22;56125;52.242;4.756;2023-04-23T12:27:17;20.30;46.90
69054;DHT22;56125;52.242;4.756;2023-04-23T12:32:23;20.40;47.00
69054;DHT22;56125;52.242;4.756;2023-04-23T12:37:25;20.40;47.00
69054;DHT22;56125;52.242;4.756;2023-04-23T12:42:26;20.40;46.90
69054;DHT22;56125;52.242;4.756;2023-04-23T12:47:27;20.40;46.90
69054;DHT22;56125;52.242;4.756;2023-04-23T12:52:28;20.30;47.00
69054;DHT22;56125;52.242;4.756;2023-04-23T12:57:30;20.40;46.90
69054;DHT22;56125;52.242;4.756;2023-04-23T13:02:31;20.40;46.90
69054;DHT22;56125;52.242;4.756;2023-04-23T13:07:32;20.40;46.90
69054;DHT22;56125;52.242;4.756;2023-04-23T13:12:33;20.40;47.00
69054;DHT22;56125;52.242;4.756;2023-04-23T13:17:35;20.40;47.00
69054;DHT22;56125;52.242;4.756;2023-04-23T13:22:36;20.30;46.90
69054;DHT22;56125;52.242;4.756;2023-04-23T13:27:37;20.30;46.80
69054;DHT22;56125;52.242;4.756;2023-04-23T13:32:40;20.30;46.90
69054;DHT22;56125;52.242;4.756;2023-04-23T13:37:41;20.30;47.00
69054;DHT22;56125;52.242;4.756;2023-04-23T13:42:43;20.20;47.20
69054;DHT22;56125;52.242;4.756;2023-04-23T13:47:44;20.20;47.30
69054;DHT22;56125;52.242;4.756;2023-04-23T13:52:45;20.20;47.60
69054;DHT22;56125;52.242;4.756;2023-04-23T13:57:47;20.20;47.70
69054;DHT22;56125;52.242;4.756;2023-04-23T14:02:48;20.20;48.00
69054;DHT22;56125;52.242;4.756;2023-04-23T14:07:50;20.10;48.00
69054;DHT22;56125;52.242;4.756;2023-04-23T14:12:51;20.10;48.20
69054;DHT22;56125;52.242;4.756;2023-04-23T14:17:52;20.10;48.30
69054;DHT22;56125;52.242;4.756;2023-04-23T14:23:02;20.10;48.60
69054;DHT22;56125;52.242;4.756;2023-04-23T14:33:26;20.10;48.80
69054;DHT22;56125;52.242;4.756;2023-04-23T14:38:27;20.10;48.90
69054;DHT22;56125;52.242;4.756;2023-04-23T14:43:28;20.10;48.90
69054;DHT22;56125;52.242;4.756;2023-04-23T14:48:29;20.10;49.10
69054;DHT22;56125;52.242;4.756;2023-04-23T14:53:31;20.10;49.20
69054;DHT22;56125;52.242;4.756;2023-04-23T14:58:33;20.10;49.10
69054;DHT22;56125;52.242;4.756;2023-04-23T15:03:34;20.10;49.10
69054;DHT22;56125;52.242;4.756;2023-04-23T15:08:36;20.00;49.20
69054;DHT22;56125;52.242;4.756;2023-04-23T15:13:54;20.00;49.00
69054;DHT22;56125;52.242;4.756;2023-04-23T15:18:59;20.00;49.10
69054;DHT22;56125;52.242;4.756;2023-04-23T15:24:00;20.00;49.30
69054;DHT22;56125;52.242;4.756;2023-04-23T15:29:01;20.00;49.30
69054;DHT22;56125;52.242;4.756;2023-04-23T15:34:03;20.00;49.50
69054;DHT22;56125;52.242;4.756;2023-04-23T15:39:06;20.00;49.50
69054;DHT22;56125;52.242;4.756;2023-04-23T15:44:08;20.20;49.70
69054;DHT22;56125;52.242;4.756;2023-04-23T15:49:12;20.00;49.60
69054;DHT22;56125;52.242;4.756;2023-04-23T15:54:13;20.00;49.60
69054;DHT22;56125;52.242;4.756;2023-04-23T15:59:14;19.90;49.60
69054;DHT22;56125;52.242;4.756;2023-04-23T16:04:15;19.90;49.60
69054;DHT22;56125;52.242;4.756;2023-04-23T16:09:16;19.90;49.50
69054;DHT22;56125;52.242;4.756;2023-04-23T16:14:18;19.90;49.60
69054;DHT22;56125;52.242;4.756;2023-04-23T16:19:19;19.90;49.70
69054;DHT22;56125;52.242;4.756;2023-04-23T16:24:20;19.90;49.70
69054;DHT22;56125;52.242;4.756;2023-04-23T16:29:22;19.90;49.70
69054;DHT22;56125;52.242;4.756;2023-04-23T16:34:23;19.90;49.70
69054;DHT22;56125;52.242;4.756;2023-04-23T16:39:25;19.90;49.90
69054;DHT22;56125;52.242;4.756;2023-04-23T16:44:26;19.80;49.90
69054;DHT22;56125;52.242;4.756;2023-04-23T16:49:27;19.80;49.90
69054;DHT22;56125;52.242;4.756;2023-04-23T16:54:28;19.80;50.10
69054;DHT22;56125;52.242;4.756;2023-04-23T16:59:30;19.80;50.10
69054;DHT22;56125;52.242;4.756;2023-04-23T17:04:31;19.80;50.00
69054;DHT22;56125;52.242;4.756;2023-04-23T17:09:32;19.80;50.10
69054;DHT22;56125;52.242;4.756;2023-04-23T17:14:33;19.80;50.10
69054;DHT22;56125;52.242;4.756;2023-04-23T17:19:35;19.80;50.00
69054;DHT22;56125;52.242;4.756;2023-04-23T17:24:36;19.70;50.20
69054;DHT22;56125;52.242;4.756;2023-04-23T17:29:37;19.80;50.20
69054;DHT22;56125;52.242;4.756;2023-04-23T17:34:38;19.80;50.10
69054;DHT22;56125;52.242;4.756;2023-04-23T17:39:39;19.70;50.10
69054;DHT22;56125;52.242;4.756;2023-04-23T17:44:40;19.70;50.30
69054;DHT22;56125;52.242;4.756;2023-04-23T17:49:42;19.70;50.20
69054;DHT22;56125;52.242;4.756;2023-04-23T17:54:44;19.80;50.50
69054;DHT22;56125;52.242;4.756;2023-04-23T17:59:45;19.70;50.40
69054;DHT22;56125;52.242;4.756;2023-04-23T18:04:46;19.70;51.60
69054;DHT22;56125;52.242;4.756;2023-04-23T18:09:47;19.70;51.30
69054;DHT22;56125;52.242;4.756;2023-04-23T18:14:49;19.70;50.60
69054;DHT22;56125;52.242;4.756;2023-04-23T18:19:50;19.70;50.50
69054;DHT22;56125;52.242;4.756;2023-04-23T18:24:52;19.70;50.50
69054;DHT22;56125;52.242;4.756;2023-04-23T18:29:53;19.30;50.40
69054;DHT22;56125;52.242;4.756;2023-04-23T18:34:57;19.60;50.60
69054;DHT22;56125;52.242;4.756;2023-04-23T18:39:58;19.60;50.70
69054;DHT22;56125;52.242;4.756;2023-04-23T18:44:59;19.60;50.60
69054;DHT22;56125;52.242;4.756;2023-04-23T18:50:08;19.60;50.70
69054;DHT22;56125;52.242;4.756;2023-04-23T18:55:28;19.60;50.70
69054;DHT22;56125;52.242;4.756;2023-04-23T19:00:29;19.60;50.70
69054;DHT22;56125;52.242;4.756;2023-04-23T19:05:30;19.60;50.60
69054;DHT22;56125;52.242;4.756;2023-04-23T19:10:31;19.70;51.00
69054;DHT22;56125;52.242;4.756;2023-04-23T19:15:32;19.60;51.20
69054;DHT22;56125;52.242;4.756;2023-04-23T19:20:33;19.60;51.30
69054;DHT22;56125;52.242;4.756;2023-04-23T19:25:35;19.60;51.30
69054;DHT22;56125;52.242;4.756;2023-04-23T19:30:36;19.60;51.20
69054;DHT22;56125;52.242;4.756;2023-04-23T19:35:37;19.60;51.10
69054;DHT22;56125;52.242;4.756;2023-04-23T19:40:38;19.60;51.20
69054;DHT22;56125;52.242;4.756;2023-04-23T19:45:39;19.50;51.10
69054;DHT22;56125;52.242;4.756;2023-04-23T19:50:40;19.50;51.10
69054;DHT22;56125;52.242;4.756;2023-04-23T19:55:41;19.50;51.10
69054;DHT22;56125;52.242;4.756;2023-04-23T20:00:43;19.50;51.10
69054;DHT22;56125;52.242;4.756;2023-04-23T20:05:45;19.90;51.30
69054;DHT22;56125;52.242;4.756;2023-04-23T20:10:47;19.50;51.10
69054;DHT22;56125;52.242;4.756;2023-04-23T20:15:48;19.50;51.20
69054;DHT22;56125;52.242;4.756;2023-04-23T20:20:50;19.50;51.10
69054;DHT22;56125;52.242;4.756;2023-04-23T20:25:52;19.50;51.10
69054;DHT22;56125;52.242;4.756;2023-04-23T20:30:54;19.50;51.10
69054;DHT22;56125;52.242;4.756;2023-04-23T20:35:55;19.50;51.00
69054;DHT22;56125;52.242;4.756;2023-04-23T20:40:56;19.50;51.10
69054;DHT22;56125;52.242;4.756;2023-04-23T20:46:02;19.50;51.30
69054;DHT22;56125;52.242;4.756;2023-04-23T20:51:03;19.50;51.10
69054;DHT22;56125;52.242;4.756;2023-04-23T20:56:04;19.50;51.30
69054;DHT22;56125;52.242;4.756;2023-04-23T21:01:05;19.40;51.30
69054;DHT22;56125;52.242;4.756;2023-04-23T21:06:09;19.40;51.30
69054;DHT22;56125;52.242;4.756;2023-04-23T21:11:14;19.60;51.40
69054;DHT22;56125;52.242;4.756;2023-04-23T21:16:15;19.40;51.30
69054;DHT22;56125;52.242;4.756;2023-04-23T21:21:16;19.40;51.40
69054;DHT22;56125;52.242;4.756;2023-04-23T21:26:17;19.40;51.50
69054;DHT22;56125;52.242;4.756;2023-04-23T21:36:36;19.40;51.40
69054;DHT22;56125;52.242;4.756;2023-04-23T21:41:40;19.40;51.50
69054;DHT22;56125;52.242;4.756;2023-04-23T21:46:41;19.40;51.40
69054;DHT22;56125;52.242;4.756;2023-04-23T21:51:43;19.10;51.20
69054;DHT22;56125;52.242;4.756;2023-04-23T21:56:45;19.40;51.50
69054;DHT22;56125;52.242;4.756;2023-04-23T22:01:46;19.80;51.70
69054;DHT22;56125;52.242;4.756;2023-04-23T22:06:47;19.40;51.40
69054;DHT22;56125;52.242;4.756;2023-04-23T22:11:48;19.40;51.30
69054;DHT22;56125;52.242;4.756;2023-04-23T22:16:49;19.40;51.30
69054;DHT22;56125;52.242;4.756;2023-04-23T22:21:50;19.30;51.40
69054;DHT22;56125;52.242;4.756;2023-04-23T22:26:51;19.40;51.30
69054;DHT22;56125;52.242;4.756;2023-04-23T22:31:52;19.40;51.40
69054;DHT22;56125;52.242;4.756;2023-04-23T22:36:54;19.40;51.50
69054;DHT22;56125;52.242;4.756;2023-04-23T22:41:55;19.40;51.40
69054;DHT22;56125;52.242;4.756;2023-04-23T22:46:56;19.30;51.50
69054;DHT22;56125;52.242;4.756;2023-04-23T22:51:57;19.30;51.30
69054;DHT22;56125;52.242;4.756;2023-04-23T22:56:58;19.30;51.30
69054;DHT22;56125;52.242;4.756;2023-04-23T23:01:59;19.30;51.50
69054;DHT22;56125;52.242;4.756;2023-04-23T23:07:00;19.30;51.50
69054;DHT22;56125;52.242;4.756;2023-04-23T23:12:03;19.30;51.60
69054;DHT22;56125;52.242;4.756;2023-04-23T23:17:04;19.30;51.40
69054;DHT22;56125;52.242;4.756;2023-04-23T23:22:08;19.30;51.60
69054;DHT22;56125;52.242;4.756;2023-04-23T23:27:09;19.20;51.60
69054;DHT22;56125;52.242;4.756;2023-04-23T23:32:10;19.30;51.40
69054;DHT22;56125;52.242;4.756;2023-04-23T23:37:11;19.30;51.60
69054;DHT22;56125;52.242;4.756;2023-04-23T23:42:12;19.30;51.70
69054;DHT22;56125;52.242;4.756;2023-04-23T23:47:13;19.30;51.50
69054;DHT22;56125;52.242;4.756;2023-04-23T23:52:14;19.30;51.50
69054;DHT22;56125;52.242;4.756;2023-04-23T23:57:15;18.70;51.10
